sensor_id;sensor_type;location;lat;lon;timestamp;P1;durP1;ratioP1;P2;durP2;ratioP2
40244;SDS011;25963;42.694;23.600;2022-12-08T00:01:40;48.80;;;23.25;;
40244;SDS011;25963;42.694;23.600;2022-12-08T00:04:06;55.10;;;23.30;;
40244;SDS011;25963;42.694;23.600;2022-12-08T00:06:32;44.38;;;21.83;;
40244;SDS011;25963;42.694;23.600;2022-12-08T00:12:02;45.38;;;21.40;;
40244;SDS011;25963;42.694;23.600;2022-12-08T00:14:28;52.72;;;21.90;;
40244;SDS011;25963;42.694;23.600;2022-12-08T00:16:56;50.90;;;23.00;;
40244;SDS011;25963;42.694;23.600;2022-12-08T00:19:22;43.28;;;21.00;;
40244;SDS011;25963;42.694;23.600;2022-12-08T00:21:48;43.88;;;19.50;;
40244;SDS011;25963;42.694;23.600;2022-12-08T00:24:14;45.70;;;20.27;;
40244;SDS011;25963;42.694;23.600;2022-12-08T00:26:40;42.97;;;18.83;;
40244;SDS011;25963;42.694;23.600;2022-12-08T00:29:06;46.08;;;22.70;;
40244;SDS011;25963;42.694;23.600;2022-12-08T00:31:31;47.72;;;19.38;;
40244;SDS011;25963;42.694;23.600;2022-12-08T00:33:58;44.95;;;20.67;;
40244;SDS011;25963;42.694;23.600;2022-12-08T00:36:24;37.65;;;19.42;;
40244;SDS011;25963;42.694;23.600;2022-12-08T00:38:49;38.15;;;17.60;;
40244;SDS011;25963;42.694;23.600;2022-12-08T00:41:16;37.47;;;18.63;;
40244;SDS011;25963;42.694;23.600;2022-12-08T00:44:03;38.83;;;18.40;;
40244;SDS011;25963;42.694;23.600;2022-12-08T00:46:29;36.20;;;18.27;;
40244;SDS011;25963;42.694;23.600;2022-12-08T00:48:54;40.15;;;18.10;;
40244;SDS011;25963;42.694;23.600;2022-12-08T00:51:19;45.75;;;20.50;;
40244;SDS011;25963;42.694;23.600;2022-12-08T00:53:45;39.22;;;20.80;;
40244;SDS011;25963;42.694;23.600;2022-12-08T00:56:10;34.90;;;18.65;;
40244;SDS011;25963;42.694;23.600;2022-12-08T00:58:36;36.40;;;18.83;;
40244;SDS011;25963;42.694;23.600;2022-12-08T01:01:01;53.20;;;23.38;;
40244;SDS011;25963;42.694;23.600;2022-12-08T01:03:33;42.35;;;19.42;;
40244;SDS011;25963;42.694;23.600;2022-12-08T01:06:01;37.00;;;17.98;;
40244;SDS011;25963;42.694;23.600;2022-12-08T01:08:27;42.38;;;21.98;;
40244;SDS011;25963;42.694;23.600;2022-12-08T01:10:53;37.78;;;18.75;;
40244;SDS011;25963;42.694;23.600;2022-12-08T01:13:18;46.85;;;20.83;;
40244;SDS011;25963;42.694;23.600;2022-12-08T01:15:43;40.38;;;18.05;;
40244;SDS011;25963;42.694;23.600;2022-12-08T01:18:09;54.88;;;24.40;;
40244;SDS011;25963;42.694;23.600;2022-12-08T01:20:34;48.88;;;22.65;;
40244;SDS011;25963;42.694;23.600;2022-12-08T01:22:59;62.50;;;29.63;;
40244;SDS011;25963;42.694;23.600;2022-12-08T01:25:25;48.22;;;22.40;;
40244;SDS011;25963;42.694;23.600;2022-12-08T01:27:51;46.80;;;22.63;;
40244;SDS011;25963;42.694;23.600;2022-12-08T01:30:17;44.90;;;20.00;;
40244;SDS011;25963;42.694;23.600;2022-12-08T01:32:43;40.60;;;19.70;;
40244;SDS011;25963;42.694;23.600;2022-12-08T01:35:09;37.70;;;18.50;;
40244;SDS011;25963;42.694;23.600;2022-12-08T01:37:34;33.20;;;17.40;;
40244;SDS011;25963;42.694;23.600;2022-12-08T01:40:00;36.58;;;17.92;;
40244;SDS011;25963;42.694;23.600;2022-12-08T01:42:25;37.38;;;19.13;;
40244;SDS011;25963;42.694;23.600;2022-12-08T01:44:52;40.35;;;18.95;;
40244;SDS011;25963;42.694;23.600;2022-12-08T01:47:25;40.58;;;20.70;;
40244;SDS011;25963;42.694;23.600;2022-12-08T01:49:55;37.83;;;19.67;;
40244;SDS011;25963;42.694;23.600;2022-12-08T01:52:22;33.22;;;16.13;;
40244;SDS011;25963;42.694;23.600;2022-12-08T01:54:57;34.95;;;15.57;;
40244;SDS011;25963;42.694;23.600;2022-12-08T01:57:35;31.17;;;15.95;;
40244;SDS011;25963;42.694;23.600;2022-12-08T02:00:10;38.03;;;17.02;;
40244;SDS011;25963;42.694;23.600;2022-12-08T02:02:56;38.13;;;16.50;;
40244;SDS011;25963;42.694;23.600;2022-12-08T02:05:28;44.13;;;17.83;;
40244;SDS011;25963;42.694;23.600;2022-12-08T02:07:56;35.75;;;17.10;;
40244;SDS011;25963;42.694;23.600;2022-12-08T02:10:23;39.03;;;17.73;;
40244;SDS011;25963;42.694;23.600;2022-12-08T02:12:52;41.83;;;18.50;;
40244;SDS011;25963;42.694;23.600;2022-12-08T02:15:19;48.70;;;21.50;;
40244;SDS011;25963;42.694;23.600;2022-12-08T02:18:33;41.50;;;18.80;;
40244;SDS011;25963;42.694;23.600;2022-12-08T02:20:47;41.08;;;19.08;;
40244;SDS011;25963;42.694;23.600;2022-12-08T02:23:26;38.88;;;18.58;;
40244;SDS011;25963;42.694;23.600;2022-12-08T02:42:04;30.30;;;15.75;;
40244;SDS011;25963;42.694;23.600;2022-12-08T02:47:40;35.13;;;16.05;;
40244;SDS011;25963;42.694;23.600;2022-12-08T02:50:07;40.42;;;17.83;;
40244;SDS011;25963;42.694;23.600;2022-12-08T02:55:00;40.63;;;17.52;;
40244;SDS011;25963;42.694;23.600;2022-12-08T02:57:32;39.60;;;17.08;;
40244;SDS011;25963;42.694;23.600;2022-12-08T03:00:20;35.65;;;17.27;;
40244;SDS011;25963;42.694;23.600;2022-12-08T03:05:31;36.22;;;17.45;;
40244;SDS011;25963;42.694;23.600;2022-12-08T03:11:03;33.10;;;17.20;;
40244;SDS011;25963;42.694;23.600;2022-12-08T03:13:40;38.70;;;18.38;;
40244;SDS011;25963;42.694;23.600;2022-12-08T03:16:09;32.08;;;15.93;;
40244;SDS011;25963;42.694;23.600;2022-12-08T03:18:41;30.25;;;15.30;;
40244;SDS011;25963;42.694;23.600;2022-12-08T03:21:11;34.40;;;16.27;;
40244;SDS011;25963;42.694;23.600;2022-12-08T03:23:39;43.10;;;18.10;;
40244;SDS011;25963;42.694;23.600;2022-12-08T03:26:12;41.03;;;17.45;;
40244;SDS011;25963;42.694;23.600;2022-12-08T03:28:44;41.38;;;19.65;;
40244;SDS011;25963;42.694;23.600;2022-12-08T03:31:11;39.67;;;19.27;;
40244;SDS011;25963;42.694;23.600;2022-12-08T03:33:39;39.92;;;17.90;;
40244;SDS011;25963;42.694;23.600;2022-12-08T03:36:08;36.70;;;16.02;;
40244;SDS011;25963;42.694;23.600;2022-12-08T03:38:36;37.33;;;18.17;;
40244;SDS011;25963;42.694;23.600;2022-12-08T03:41:03;44.42;;;19.35;;
40244;SDS011;25963;42.694;23.600;2022-12-08T03:43:51;36.33;;;17.25;;
40244;SDS011;25963;42.694;23.600;2022-12-08T03:46:18;37.22;;;17.48;;
40244;SDS011;25963;42.694;23.600;2022-12-08T03:48:46;36.78;;;17.30;;
40244;SDS011;25963;42.694;23.600;2022-12-08T03:51:12;36.78;;;18.17;;
40244;SDS011;25963;42.694;23.600;2022-12-08T03:53:37;37.67;;;15.35;;
40244;SDS011;25963;42.694;23.600;2022-12-08T03:56:04;34.90;;;15.80;;
40244;SDS011;25963;42.694;23.600;2022-12-08T03:58:31;32.47;;;16.65;;
40244;SDS011;25963;42.694;23.600;2022-12-08T04:00:56;34.08;;;19.05;;
40244;SDS011;25963;42.694;23.600;2022-12-08T04:03:22;34.90;;;16.75;;
40244;SDS011;25963;42.694;23.600;2022-12-08T04:05:47;35.70;;;16.90;;
40244;SDS011;25963;42.694;23.600;2022-12-08T04:08:12;47.25;;;24.63;;
40244;SDS011;25963;42.694;23.600;2022-12-08T04:10:38;37.40;;;19.25;;
40244;SDS011;25963;42.694;23.600;2022-12-08T04:13:03;46.63;;;22.30;;
40244;SDS011;25963;42.694;23.600;2022-12-08T04:15:28;56.85;;;34.20;;
40244;SDS011;25963;42.694;23.600;2022-12-08T04:17:54;41.15;;;19.88;;
40244;SDS011;25963;42.694;23.600;2022-12-08T04:20:19;41.92;;;22.10;;
40244;SDS011;25963;42.694;23.600;2022-12-08T04:22:45;46.30;;;22.55;;
40244;SDS011;25963;42.694;23.600;2022-12-08T04:25:10;44.38;;;24.27;;
40244;SDS011;25963;42.694;23.600;2022-12-08T04:27:35;51.13;;;21.67;;
40244;SDS011;25963;42.694;23.600;2022-12-08T04:30:01;44.35;;;20.92;;
40244;SDS011;25963;42.694;23.600;2022-12-08T04:32:26;41.83;;;21.45;;
40244;SDS011;25963;42.694;23.600;2022-12-08T04:34:52;44.03;;;20.85;;
40244;SDS011;25963;42.694;23.600;2022-12-08T04:37:17;46.63;;;19.95;;
40244;SDS011;25963;42.694;23.600;2022-12-08T04:39:42;49.80;;;19.17;;
40244;SDS011;25963;42.694;23.600;2022-12-08T04:42:08;46.67;;;19.23;;
40244;SDS011;25963;42.694;23.600;2022-12-08T04:44:33;37.53;;;19.85;;
40244;SDS011;25963;42.694;23.600;2022-12-08T04:46:59;46.22;;;21.27;;
40244;SDS011;25963;42.694;23.600;2022-12-08T04:49:24;46.22;;;21.63;;
40244;SDS011;25963;42.694;23.600;2022-12-08T04:51:50;43.25;;;21.88;;
40244;SDS011;25963;42.694;23.600;2022-12-08T04:54:15;44.03;;;21.48;;
40244;SDS011;25963;42.694;23.600;2022-12-08T04:56:40;41.85;;;21.52;;
40244;SDS011;25963;42.694;23.600;2022-12-08T04:59:06;40.33;;;20.20;;
40244;SDS011;25963;42.694;23.600;2022-12-08T05:01:31;40.92;;;20.10;;
40244;SDS011;25963;42.694;23.600;2022-12-08T05:03:57;41.25;;;18.52;;
40244;SDS011;25963;42.694;23.600;2022-12-08T05:06:22;47.83;;;21.42;;
40244;SDS011;25963;42.694;23.600;2022-12-08T05:08:48;35.92;;;19.08;;
40244;SDS011;25963;42.694;23.600;2022-12-08T05:11:13;45.08;;;19.45;;
40244;SDS011;25963;42.694;23.600;2022-12-08T05:13:39;41.47;;;19.52;;
40244;SDS011;25963;42.694;23.600;2022-12-08T05:16:05;42.58;;;20.90;;
40244;SDS011;25963;42.694;23.600;2022-12-08T05:18:33;43.55;;;20.75;;
40244;SDS011;25963;42.694;23.600;2022-12-08T05:20:58;39.47;;;18.80;;
40244;SDS011;25963;42.694;23.600;2022-12-08T05:23:24;38.75;;;19.58;;
40244;SDS011;25963;42.694;23.600;2022-12-08T05:25:49;39.63;;;20.42;;
40244;SDS011;25963;42.694;23.600;2022-12-08T05:28:14;43.05;;;19.83;;
40244;SDS011;25963;42.694;23.600;2022-12-08T05:30:40;38.55;;;19.10;;
40244;SDS011;25963;42.694;23.600;2022-12-08T05:33:05;41.35;;;19.02;;
40244;SDS011;25963;42.694;23.600;2022-12-08T05:35:31;37.30;;;18.05;;
40244;SDS011;25963;42.694;23.600;2022-12-08T05:37:56;40.30;;;19.50;;
40244;SDS011;25963;42.694;23.600;2022-12-08T05:40:21;36.40;;;18.85;;
40244;SDS011;25963;42.694;23.600;2022-12-08T05:42:47;36.08;;;18.05;;
40244;SDS011;25963;42.694;23.600;2022-12-08T05:45:12;44.08;;;19.77;;
40244;SDS011;25963;42.694;23.600;2022-12-08T05:47:38;159.68;;;68.55;;
40244;SDS011;25963;42.694;23.600;2022-12-08T05:50:04;284.00;;;125.28;;
40244;SDS011;25963;42.694;23.600;2022-12-08T05:52:30;41.80;;;21.05;;
40244;SDS011;25963;42.694;23.600;2022-12-08T05:54:56;32.72;;;16.08;;
40244;SDS011;25963;42.694;23.600;2022-12-08T05:57:21;33.15;;;15.68;;
40244;SDS011;25963;42.694;23.600;2022-12-08T05:59:47;37.00;;;19.05;;
40244;SDS011;25963;42.694;23.600;2022-12-08T06:02:12;33.88;;;17.45;;
40244;SDS011;25963;42.694;23.600;2022-12-08T06:04:37;42.13;;;20.77;;
40244;SDS011;25963;42.694;23.600;2022-12-08T06:07:03;31.88;;;17.08;;
40244;SDS011;25963;42.694;23.600;2022-12-08T06:09:28;31.55;;;17.58;;
40244;SDS011;25963;42.694;23.600;2022-12-08T06:11:54;35.53;;;20.42;;
40244;SDS011;25963;42.694;23.600;2022-12-08T06:14:19;86.50;;;46.28;;
40244;SDS011;25963;42.694;23.600;2022-12-08T06:16:44;105.45;;;54.72;;
40244;SDS011;25963;42.694;23.600;2022-12-08T06:19:10;47.90;;;26.30;;
40244;SDS011;25963;42.694;23.600;2022-12-08T06:21:35;45.25;;;21.80;;
40244;SDS011;25963;42.694;23.600;2022-12-08T06:24:01;309.83;;;105.00;;
40244;SDS011;25963;42.694;23.600;2022-12-08T06:26:26;166.57;;;62.13;;
40244;SDS011;25963;42.694;23.600;2022-12-08T06:28:52;73.53;;;33.30;;
40244;SDS011;25963;42.694;23.600;2022-12-08T06:31:19;69.65;;;34.35;;
40244;SDS011;25963;42.694;23.600;2022-12-08T06:33:46;59.00;;;29.10;;
40244;SDS011;25963;42.694;23.600;2022-12-08T06:36:12;51.50;;;26.85;;
40244;SDS011;25963;42.694;23.600;2022-12-08T06:38:39;51.67;;;29.38;;
40244;SDS011;25963;42.694;23.600;2022-12-08T06:41:05;44.55;;;23.50;;
40244;SDS011;25963;42.694;23.600;2022-12-08T06:43:31;45.60;;;24.10;;
40244;SDS011;25963;42.694;23.600;2022-12-08T06:45:57;89.13;;;53.22;;
40244;SDS011;25963;42.694;23.600;2022-12-08T06:48:24;52.38;;;27.13;;
40244;SDS011;25963;42.694;23.600;2022-12-08T06:50:49;64.25;;;36.88;;
40244;SDS011;25963;42.694;23.600;2022-12-08T06:53:15;69.30;;;47.47;;
40244;SDS011;25963;42.694;23.600;2022-12-08T06:55:44;118.15;;;85.57;;
40244;SDS011;25963;42.694;23.600;2022-12-08T06:58:10;67.80;;;40.60;;
40244;SDS011;25963;42.694;23.600;2022-12-08T07:00:37;68.65;;;44.85;;
40244;SDS011;25963;42.694;23.600;2022-12-08T07:03:03;109.60;;;72.00;;
40244;SDS011;25963;42.694;23.600;2022-12-08T07:05:28;65.20;;;37.20;;
40244;SDS011;25963;42.694;23.600;2022-12-08T07:07:54;81.22;;;43.42;;
40244;SDS011;25963;42.694;23.600;2022-12-08T07:10:19;78.75;;;48.53;;
40244;SDS011;25963;42.694;23.600;2022-12-08T07:12:44;60.10;;;35.13;;
40244;SDS011;25963;42.694;23.600;2022-12-08T07:15:10;42.00;;;24.67;;
40244;SDS011;25963;42.694;23.600;2022-12-08T07:17:35;47.15;;;25.77;;
40244;SDS011;25963;42.694;23.600;2022-12-08T07:20:01;40.33;;;24.98;;
40244;SDS011;25963;42.694;23.600;2022-12-08T07:22:26;51.90;;;24.90;;
40244;SDS011;25963;42.694;23.600;2022-12-08T07:24:51;48.70;;;27.35;;
40244;SDS011;25963;42.694;23.600;2022-12-08T07:27:17;71.63;;;37.72;;
40244;SDS011;25963;42.694;23.600;2022-12-08T07:29:42;128.23;;;72.10;;
40244;SDS011;25963;42.694;23.600;2022-12-08T07:32:08;78.80;;;47.72;;
40244;SDS011;25963;42.694;23.600;2022-12-08T07:34:33;88.50;;;56.25;;
40244;SDS011;25963;42.694;23.600;2022-12-08T07:36:58;48.28;;;31.15;;
40244;SDS011;25963;42.694;23.600;2022-12-08T07:39:24;50.13;;;29.23;;
40244;SDS011;25963;42.694;23.600;2022-12-08T07:41:49;41.85;;;22.15;;
40244;SDS011;25963;42.694;23.600;2022-12-08T07:44:15;45.20;;;25.65;;
40244;SDS011;25963;42.694;23.600;2022-12-08T07:46:40;42.17;;;24.45;;
40244;SDS011;25963;42.694;23.600;2022-12-08T07:49:06;47.30;;;26.02;;
40244;SDS011;25963;42.694;23.600;2022-12-08T07:51:31;48.72;;;26.48;;
40244;SDS011;25963;42.694;23.600;2022-12-08T07:53:57;47.50;;;26.52;;
40244;SDS011;25963;42.694;23.600;2022-12-08T07:56:22;53.65;;;28.20;;
40244;SDS011;25963;42.694;23.600;2022-12-08T07:58:48;50.00;;;27.98;;
40244;SDS011;25963;42.694;23.600;2022-12-08T08:03:53;49.70;;;27.92;;
40244;SDS011;25963;42.694;23.600;2022-12-08T08:06:19;58.38;;;34.20;;
40244;SDS011;25963;42.694;23.600;2022-12-08T08:08:45;48.65;;;25.50;;
40244;SDS011;25963;42.694;23.600;2022-12-08T08:11:13;41.60;;;23.38;;
40244;SDS011;25963;42.694;23.600;2022-12-08T08:13:38;35.95;;;22.00;;
40244;SDS011;25963;42.694;23.600;2022-12-08T08:16:05;41.03;;;23.30;;
40244;SDS011;25963;42.694;23.600;2022-12-08T08:18:32;50.42;;;32.13;;
40244;SDS011;25963;42.694;23.600;2022-12-08T08:20:58;50.30;;;30.98;;
40244;SDS011;25963;42.694;23.600;2022-12-08T08:23:23;39.35;;;24.88;;
40244;SDS011;25963;42.694;23.600;2022-12-08T08:25:48;41.08;;;23.90;;
40244;SDS011;25963;42.694;23.600;2022-12-08T08:28:14;42.33;;;26.58;;
40244;SDS011;25963;42.694;23.600;2022-12-08T08:30:40;47.35;;;27.33;;
40244;SDS011;25963;42.694;23.600;2022-12-08T08:33:05;40.95;;;24.88;;
40244;SDS011;25963;42.694;23.600;2022-12-08T08:35:32;44.78;;;27.60;;
40244;SDS011;25963;42.694;23.600;2022-12-08T08:37:57;43.75;;;25.63;;
40244;SDS011;25963;42.694;23.600;2022-12-08T08:40:23;35.25;;;22.52;;
40244;SDS011;25963;42.694;23.600;2022-12-08T08:42:48;49.95;;;28.42;;
40244;SDS011;25963;42.694;23.600;2022-12-08T08:45:14;44.28;;;28.80;;
40244;SDS011;25963;42.694;23.600;2022-12-08T08:47:39;36.13;;;23.02;;
40244;SDS011;25963;42.694;23.600;2022-12-08T08:50:05;44.88;;;22.25;;
40244;SDS011;25963;42.694;23.600;2022-12-08T08:52:34;36.80;;;22.23;;
40244;SDS011;25963;42.694;23.600;2022-12-08T08:54:59;38.08;;;22.48;;
40244;SDS011;25963;42.694;23.600;2022-12-08T08:57:25;42.38;;;23.33;;
40244;SDS011;25963;42.694;23.600;2022-12-08T08:59:50;39.38;;;23.83;;
40244;SDS011;25963;42.694;23.600;2022-12-08T09:02:16;35.35;;;19.10;;
40244;SDS011;25963;42.694;23.600;2022-12-08T09:04:43;34.30;;;20.17;;
40244;SDS011;25963;42.694;23.600;2022-12-08T09:07:09;76.32;;;47.33;;
40244;SDS011;25963;42.694;23.600;2022-12-08T09:09:35;41.47;;;24.75;;
40244;SDS011;25963;42.694;23.600;2022-12-08T09:12:01;39.60;;;24.20;;
40244;SDS011;25963;42.694;23.600;2022-12-08T09:14:26;37.22;;;21.83;;
40244;SDS011;25963;42.694;23.600;2022-12-08T09:16:52;29.67;;;18.80;;
40244;SDS011;25963;42.694;23.600;2022-12-08T09:19:17;29.23;;;18.95;;
40244;SDS011;25963;42.694;23.600;2022-12-08T09:21:43;45.05;;;25.00;;
40244;SDS011;25963;42.694;23.600;2022-12-08T09:24:08;34.60;;;19.33;;
40244;SDS011;25963;42.694;23.600;2022-12-08T09:26:39;34.55;;;19.77;;
40244;SDS011;25963;42.694;23.600;2022-12-08T09:29:06;29.13;;;17.88;;
40244;SDS011;25963;42.694;23.600;2022-12-08T09:31:31;27.88;;;18.80;;
40244;SDS011;25963;42.694;23.600;2022-12-08T09:33:57;31.25;;;19.35;;
40244;SDS011;25963;42.694;23.600;2022-12-08T09:36:23;30.90;;;20.08;;
40244;SDS011;25963;42.694;23.600;2022-12-08T09:38:49;56.03;;;31.75;;
40244;SDS011;25963;42.694;23.600;2022-12-08T09:41:16;52.40;;;31.70;;
40244;SDS011;25963;42.694;23.600;2022-12-08T09:47:26;66.63;;;35.47;;
40244;SDS011;25963;42.694;23.600;2022-12-08T09:49:59;42.88;;;25.80;;
40244;SDS011;25963;42.694;23.600;2022-12-08T09:52:32;33.45;;;20.70;;
40244;SDS011;25963;42.694;23.600;2022-12-08T09:55:09;31.58;;;19.88;;
40244;SDS011;25963;42.694;23.600;2022-12-08T09:57:41;31.38;;;17.58;;
40244;SDS011;25963;42.694;23.600;2022-12-08T10:00:09;29.73;;;19.10;;
40244;SDS011;25963;42.694;23.600;2022-12-08T10:02:37;42.42;;;22.88;;
40244;SDS011;25963;42.694;23.600;2022-12-08T10:05:02;56.38;;;31.77;;
40244;SDS011;25963;42.694;23.600;2022-12-08T10:07:42;46.88;;;27.33;;
40244;SDS011;25963;42.694;23.600;2022-12-08T10:12:45;33.72;;;20.38;;
40244;SDS011;25963;42.694;23.600;2022-12-08T10:15:32;31.38;;;19.17;;
40244;SDS011;25963;42.694;23.600;2022-12-08T10:18:25;32.90;;;19.05;;
40244;SDS011;25963;42.694;23.600;2022-12-08T10:20:52;31.08;;;20.27;;
40244;SDS011;25963;42.694;23.600;2022-12-08T10:23:26;30.45;;;19.60;;
40244;SDS011;25963;42.694;23.600;2022-12-08T10:26:03;29.13;;;17.58;;
40244;SDS011;25963;42.694;23.600;2022-12-08T10:28:36;28.48;;;18.15;;
40244;SDS011;25963;42.694;23.600;2022-12-08T10:31:02;29.50;;;19.50;;
40244;SDS011;25963;42.694;23.600;2022-12-08T10:33:30;27.52;;;19.13;;
40244;SDS011;25963;42.694;23.600;2022-12-08T10:35:57;38.05;;;21.58;;
40244;SDS011;25963;42.694;23.600;2022-12-08T10:41:02;43.15;;;25.02;;
40244;SDS011;25963;42.694;23.600;2022-12-08T10:46:23;109.53;;;48.38;;
40244;SDS011;25963;42.694;23.600;2022-12-08T10:51:24;46.17;;;25.83;;
40244;SDS011;25963;42.694;23.600;2022-12-08T10:53:52;35.10;;;19.77;;
40244;SDS011;25963;42.694;23.600;2022-12-08T10:56:18;46.30;;;25.95;;
40244;SDS011;25963;42.694;23.600;2022-12-08T10:58:44;43.25;;;24.60;;
40244;SDS011;25963;42.694;23.600;2022-12-08T11:03:46;28.83;;;17.40;;
40244;SDS011;25963;42.694;23.600;2022-12-08T11:06:25;24.98;;;16.08;;
40244;SDS011;25963;42.694;23.600;2022-12-08T11:09:03;28.85;;;16.55;;
40244;SDS011;25963;42.694;23.600;2022-12-08T11:11:37;23.38;;;15.52;;
40244;SDS011;25963;42.694;23.600;2022-12-08T11:14:24;29.90;;;19.92;;
40244;SDS011;25963;42.694;23.600;2022-12-08T11:16:55;33.25;;;20.63;;
40244;SDS011;25963;42.694;23.600;2022-12-08T11:19:44;23.33;;;14.60;;
40244;SDS011;25963;42.694;23.600;2022-12-08T11:22:32;21.05;;;13.80;;
40244;SDS011;25963;42.694;23.600;2022-12-08T11:25:07;23.30;;;15.18;;
40244;SDS011;25963;42.694;23.600;2022-12-08T11:27:41;20.75;;;12.57;;
40244;SDS011;25963;42.694;23.600;2022-12-08T11:30:13;19.85;;;14.10;;
40244;SDS011;25963;42.694;23.600;2022-12-08T11:32:40;19.03;;;13.30;;
40244;SDS011;25963;42.694;23.600;2022-12-08T11:35:09;15.38;;;11.07;;
40244;SDS011;25963;42.694;23.600;2022-12-08T11:37:43;17.45;;;12.27;;
40244;SDS011;25963;42.694;23.600;2022-12-08T11:40:31;27.45;;;17.73;;
40244;SDS011;25963;42.694;23.600;2022-12-08T11:45:26;24.77;;;14.13;;
40244;SDS011;25963;42.694;23.600;2022-12-08T11:50:47;26.75;;;14.60;;
40244;SDS011;25963;42.694;23.600;2022-12-08T11:53:36;20.45;;;11.88;;
40244;SDS011;25963;42.694;23.600;2022-12-08T11:56:12;23.20;;;18.20;;
40244;SDS011;25963;42.694;23.600;2022-12-08T11:58:44;22.85;;;15.15;;
40244;SDS011;25963;42.694;23.600;2022-12-08T12:01:24;20.98;;;12.77;;
40244;SDS011;25963;42.694;23.600;2022-12-08T12:04:36;18.98;;;12.80;;
40244;SDS011;25963;42.694;23.600;2022-12-08T12:06:53;18.15;;;11.23;;
40244;SDS011;25963;42.694;23.600;2022-12-08T12:21:01;19.63;;;11.23;;
40244;SDS011;25963;42.694;23.600;2022-12-08T12:26:15;19.17;;;12.30;;
40244;SDS011;25963;42.694;23.600;2022-12-08T12:28:44;23.98;;;15.13;;
40244;SDS011;25963;42.694;23.600;2022-12-08T12:31:17;18.63;;;13.15;;
40244;SDS011;25963;42.694;23.600;2022-12-08T12:33:46;32.08;;;17.60;;
40244;SDS011;25963;42.694;23.600;2022-12-08T12:36:13;29.85;;;17.23;;
40244;SDS011;25963;42.694;23.600;2022-12-08T12:38:43;36.17;;;19.63;;
40244;SDS011;25963;42.694;23.600;2022-12-08T12:59:45;17.98;;;12.43;;
40244;SDS011;25963;42.694;23.600;2022-12-08T13:02:30;38.72;;;18.95;;
40244;SDS011;25963;42.694;23.600;2022-12-08T13:05:24;20.00;;;12.82;;
40244;SDS011;25963;42.694;23.600;2022-12-08T13:07:59;17.80;;;11.60;;
40244;SDS011;25963;42.694;23.600;2022-12-08T13:10:38;20.52;;;13.80;;
40244;SDS011;25963;42.694;23.600;2022-12-08T13:18:26;22.48;;;14.07;;
40244;SDS011;25963;42.694;23.600;2022-12-08T13:21:03;25.02;;;15.65;;
40244;SDS011;25963;42.694;23.600;2022-12-08T13:26:20;25.70;;;17.45;;
40244;SDS011;25963;42.694;23.600;2022-12-08T13:37:40;26.90;;;13.60;;
40244;SDS011;25963;42.694;23.600;2022-12-08T13:40:19;22.02;;;12.57;;
40244;SDS011;25963;42.694;23.600;2022-12-08T13:45:48;18.35;;;12.57;;
40244;SDS011;25963;42.694;23.600;2022-12-08T13:48:56;20.52;;;12.73;;
40244;SDS011;25963;42.694;23.600;2022-12-08T13:51:22;16.90;;;11.50;;
40244;SDS011;25963;42.694;23.600;2022-12-08T13:53:56;17.58;;;11.43;;
40244;SDS011;25963;42.694;23.600;2022-12-08T13:56:26;19.98;;;10.32;;
40244;SDS011;25963;42.694;23.600;2022-12-08T13:59:22;22.33;;;13.40;;
40244;SDS011;25963;42.694;23.600;2022-12-08T14:02:02;23.92;;;13.75;;
40244;SDS011;25963;42.694;23.600;2022-12-08T14:04:35;23.98;;;15.85;;
40244;SDS011;25963;42.694;23.600;2022-12-08T14:07:00;21.63;;;14.98;;
40244;SDS011;25963;42.694;23.600;2022-12-08T14:09:31;21.17;;;13.00;;
40244;SDS011;25963;42.694;23.600;2022-12-08T14:12:03;21.30;;;13.93;;
40244;SDS011;25963;42.694;23.600;2022-12-08T14:14:41;21.15;;;12.00;;
40244;SDS011;25963;42.694;23.600;2022-12-08T14:17:10;25.95;;;14.77;;
40244;SDS011;25963;42.694;23.600;2022-12-08T14:19:38;17.67;;;11.18;;
40244;SDS011;25963;42.694;23.600;2022-12-08T14:24:32;19.02;;;12.02;;
40244;SDS011;25963;42.694;23.600;2022-12-08T14:26:59;21.90;;;13.32;;
40244;SDS011;25963;42.694;23.600;2022-12-08T14:35:13;27.67;;;13.23;;
40244;SDS011;25963;42.694;23.600;2022-12-08T14:37:48;18.83;;;11.70;;
40244;SDS011;25963;42.694;23.600;2022-12-08T14:50:55;20.17;;;12.70;;
40244;SDS011;25963;42.694;23.600;2022-12-08T14:53:26;17.95;;;10.85;;
40244;SDS011;25963;42.694;23.600;2022-12-08T14:55:59;18.88;;;11.95;;
40244;SDS011;25963;42.694;23.600;2022-12-08T14:58:28;20.50;;;12.52;;
40244;SDS011;25963;42.694;23.600;2022-12-08T15:00:57;20.73;;;13.27;;
40244;SDS011;25963;42.694;23.600;2022-12-08T15:03:25;16.58;;;10.45;;
40244;SDS011;25963;42.694;23.600;2022-12-08T15:05:57;13.77;;;9.13;;
40244;SDS011;25963;42.694;23.600;2022-12-08T15:08:27;15.45;;;9.30;;
40244;SDS011;25963;42.694;23.600;2022-12-08T15:13:58;15.70;;;9.30;;
40244;SDS011;25963;42.694;23.600;2022-12-08T15:19:00;15.70;;;7.80;;
40244;SDS011;25963;42.694;23.600;2022-12-08T15:21:29;14.85;;;7.72;;
40244;SDS011;25963;42.694;23.600;2022-12-08T15:24:00;11.25;;;6.70;;
40244;SDS011;25963;42.694;23.600;2022-12-08T15:26:25;11.82;;;7.60;;
40244;SDS011;25963;42.694;23.600;2022-12-08T15:28:52;10.20;;;6.97;;
40244;SDS011;25963;42.694;23.600;2022-12-08T15:31:18;13.85;;;7.93;;
40244;SDS011;25963;42.694;23.600;2022-12-08T15:33:44;14.00;;;8.13;;
40244;SDS011;25963;42.694;23.600;2022-12-08T15:36:10;13.05;;;7.45;;
40244;SDS011;25963;42.694;23.600;2022-12-08T15:38:36;13.85;;;7.57;;
40244;SDS011;25963;42.694;23.600;2022-12-08T15:41:02;12.35;;;8.50;;
40244;SDS011;25963;42.694;23.600;2022-12-08T15:43:28;12.25;;;7.68;;
40244;SDS011;25963;42.694;23.600;2022-12-08T15:45:55;16.35;;;8.85;;
40244;SDS011;25963;42.694;23.600;2022-12-08T15:48:22;15.52;;;9.05;;
40244;SDS011;25963;42.694;23.600;2022-12-08T15:50:51;14.32;;;11.13;;
40244;SDS011;25963;42.694;23.600;2022-12-08T15:53:17;12.73;;;9.13;;
40244;SDS011;25963;42.694;23.600;2022-12-08T15:55:42;12.25;;;7.30;;
40244;SDS011;25963;42.694;23.600;2022-12-08T15:58:19;12.27;;;7.70;;
40244;SDS011;25963;42.694;23.600;2022-12-08T16:00:46;12.73;;;7.60;;
40244;SDS011;25963;42.694;23.600;2022-12-08T16:03:19;11.88;;;7.10;;
40244;SDS011;25963;42.694;23.600;2022-12-08T16:05:55;10.70;;;7.20;;
40244;SDS011;25963;42.694;23.600;2022-12-08T16:08:23;10.38;;;5.75;;
40244;SDS011;25963;42.694;23.600;2022-12-08T16:10:49;12.07;;;8.35;;
40244;SDS011;25963;42.694;23.600;2022-12-08T16:13:15;14.55;;;8.00;;
40244;SDS011;25963;42.694;23.600;2022-12-08T16:16:00;13.05;;;8.07;;
40244;SDS011;25963;42.694;23.600;2022-12-08T16:18:29;14.65;;;9.05;;
40244;SDS011;25963;42.694;23.600;2022-12-08T16:20:57;15.57;;;8.63;;
40244;SDS011;25963;42.694;23.600;2022-12-08T16:23:23;15.43;;;7.47;;
40244;SDS011;25963;42.694;23.600;2022-12-08T16:25:48;10.65;;;6.50;;
40244;SDS011;25963;42.694;23.600;2022-12-08T16:28:14;11.45;;;6.53;;
40244;SDS011;25963;42.694;23.600;2022-12-08T16:30:39;9.18;;;4.70;;